Time;durP1;ratioP1;P1;durP2;ratioP2;P2;SDS_P1;SDS_P2;PMS_P1;PMS_P2;Temp;Humidity;BMP_temperature;BMP_pressure;BME280_temperature;BME280_humidity;BME280_pressure;Samples;Min_cycle;Max_cycle;Signal;HPM_P1;HPM_P2
2023/07/17 00:00:00;;;;;;;3.15;1.67;;;;;;;;;;5009451;28;20494;-33
2023/07/17 00:02:27;;;;;;;2.42;1.60;;;22.00;77.70;;;;;;5024010;28;20052;-32
2023/07/17 00:04:55;;;;;;;2.72;1.45;;;21.40;64.60;;;;;;5028847;28;20132;-34
2023/07/17 00:07:22;;;;;;;3.03;1.60;;;22.90;64.20;;;;;;5014120;28;20087;-35
2023/07/17 00:09:48;;;;;;;2.08;1.50;;;21.40;77.00;;;;;;5009101;28;20053;-32
2023/07/17 00:12:15;;;;;;;2.35;1.40;;;22.10;73.20;;;;;;5009064;28;20132;-32
2023/07/17 00:14:42;;;;;;;1.75;1.42;;;;;;;;;;5009277;28;20148;-33
2023/07/17 00:17:09;;;;;;;2.35;1.50;;;22.50;78.00;;;;;;5009404;28;20132;-32
2023/07/17 00:19:38;;;;;;;2.40;1.70;;;22.80;68.50;;;;;;5009434;28;20060;-33
2023/07/17 00:22:07;;;;;;;2.60;1.70;;;21.70;72.80;;;;;;5010105;28;20081;-33
2023/07/17 00:24:33;;;;;;;2.30;1.85;;;22.20;77.30;;;;;;5008854;28;20159;-32
2023/07/17 00:27:01;;;;;;;2.45;1.50;;;22.30;66.60;;;;;;5009028;28;20050;-33
2023/07/17 00:29:29;;;;;;;2.10;1.58;;;22.20;77.80;;;;;;5009437;28;20049;-32
2023/07/17 00:31:56;;;;;;;3.60;1.73;;;21.90;77.10;;;;;;5009210;28;20399;-32
2023/07/17 00:34:23;;;;;;;2.33;1.60;;;22.00;75.30;;;;;;5009058;28;20052;-33
2023/07/17 00:36:49;;;;;;;2.17;1.35;;;22.40;74.70;;;;;;5016554;28;20124;-35
2023/07/17 00:39:18;;;;;;;2.72;1.95;;;22.30;61.70;;;;;;5013223;28;20050;-35
2023/07/17 00:41:46;;;;;;;2.50;1.50;;;22.70;77.90;;;;;;5009158;28;20054;-33
2023/07/17 00:44:13;;;;;;;2.65;1.70;;;;;;;;;;5008692;28;20144;-33
2023/07/17 00:46:39;;;;;;;2.38;1.50;;;22.30;77.60;;;;;;5020487;28;20042;-33
2023/07/17 00:49:06;;;;;;;2.92;1.70;;;;;;;;;;5028501;28;20468;-32
2023/07/17 00:51:33;;;;;;;3.47;1.85;;;22.50;70.50;;;;;;5028263;28;20462;-32
2023/07/17 00:54:00;;;;;;;2.53;1.60;;;22.00;77.50;;;;;;5022592;28;20045;-32
2023/07/17 00:56:28;;;;;;;2.40;1.85;;;22.80;77.40;;;;;;5008715;28;20158;-31
2023/07/17 00:58:55;;;;;;;3.13;1.73;;;;;;;;;;5025067;28;20053;-35
2023/07/17 01:01:22;;;;;;;2.13;1.48;;;22.30;70.80;;;;;;5028352;28;20132;-33
2023/07/17 01:03:51;;;;;;;3.70;1.60;;;22.20;61.50;;;;;;5027909;28;20132;-35
2023/07/17 01:06:17;;;;;;;2.60;1.30;;;22.20;70.00;;;;;;5028023;28;20486;-32
2023/07/17 01:08:44;;;;;;;2.05;1.50;;;22.80;77.40;;;;;;5028384;28;20136;-33
2023/07/17 01:11:11;;;;;;;2.30;1.52;;;22.10;77.90;;;;;;5011181;28;20050;-32
2023/07/17 01:13:45;;;;;;;3.80;1.77;;;23.20;64.50;;;;;;5008321;28;20053;-32
2023/07/17 01:16:12;;;;;;;2.30;1.55;;;22.20;65.40;;;;;;5008343;28;20571;-33
2023/07/17 01:18:38;;;;;;;1.80;1.30;;;23.10;78.60;;;;;;5008229;28;20050;-31
2023/07/17 01:21:07;;;;;;;2.00;1.70;;;22.20;61.50;;;;;;5008401;28;20149;-32
2023/07/17 01:23:35;;;;;;;3.58;1.50;;;21.50;61.20;;;;;;5011847;28;20138;-36
2023/07/17 01:26:11;;;;;;;2.75;1.60;;;21.90;73.10;;;;;;5012901;28;20125;-33
2023/07/17 01:28:38;;;;;;;3.88;1.60;;;;;;;;;;5011652;28;20050;-33
2023/07/17 01:31:05;;;;;;;2.00;1.42;;;22.30;77.90;;;;;;5011779;28;20133;-33
2023/07/17 01:33:32;;;;;;;2.95;1.50;;;22.60;74.80;;;;;;5013871;28;20102;-31
2023/07/17 01:35:59;;;;;;;2.35;1.60;;;22.20;67.00;;;;;;5021464;28;20048;-33
2023/07/17 01:38:26;;;;;;;1.58;1.45;;;23.10;77.70;;;;;;5019273;28;20081;-32
2023/07/17 01:40:54;;;;;;;2.15;1.40;;;22.10;65.90;;;;;;5020090;28;20427;-32
2023/07/17 01:43:21;;;;;;;2.25;1.58;;;;;;;;;;5019841;28;20132;-33
2023/07/17 01:45:47;;;;;;;2.03;1.40;;;22.20;75.70;;;;;;5021608;28;20049;-32
2023/07/17 01:48:17;;;;;;;3.40;1.60;;;;;;;;;;5020355;28;20554;-35
2023/07/17 01:50:44;;;;;;;1.83;1.35;;;;;;;;;;5019570;28;20045;-33
2023/07/17 01:53:11;;;;;;;2.30;1.60;;;;;;;;;;5021608;28;20129;-35
2023/07/17 01:55:38;;;;;;;2.95;1.33;;;21.90;77.50;;;;;;5020360;28;20046;-31
2023/07/17 01:58:06;;;;;;;1.90;1.40;;;22.20;61.50;;;;;;5021738;28;20045;-35
2023/07/17 02:00:32;;;;;;;3.00;1.33;;;23.10;65.40;;;;;;5020602;28;20065;-32
2023/07/17 02:02:59;;;;;;;2.72;1.40;;;22.20;70.80;;;;;;5019675;28;20128;-34
2023/07/17 02:05:26;;;;;;;2.83;1.55;;;;;;;;;;5021310;28;20144;-35
2023/07/17 02:07:53;;;;;;;2.40;1.50;;;;;;;;;;5018535;28;20050;-35
2023/07/17 02:10:20;;;;;;;2.08;1.33;;;22.10;77.20;;;;;;5021613;28;20050;-33
2023/07/17 02:12:47;;;;;;;3.15;1.58;;;;;;;;;;5021119;28;20137;-37
2023/07/17 02:15:15;;;;;;;2.85;1.50;;;21.90;61.40;;;;;;5020831;28;20447;-32
2023/07/17 02:17:42;;;;;;;2.45;1.60;;;22.90;77.60;;;;;;5019362;28;20038;-32
2023/07/17 02:20:11;;;;;;;2.78;1.50;;;22.10;61.50;;;;;;5025274;28;20134;-34
2023/07/17 02:22:38;;;;;;;2.63;1.45;;;;;;;;;;5030021;28;20059;-36
2023/07/17 02:25:06;;;;;;;2.08;1.48;;;22.40;78.30;;;;;;5030701;28;20129;-32
2023/07/17 02:27:33;;;;;;;3.90;1.40;;;22.00;68.30;;;;;;5025934;28;20049;-33
2023/07/17 02:30:00;;;;;;;2.55;1.63;;;;;;;;;;5011070;28;20054;-32
2023/07/17 02:32:29;;;;;;;2.83;1.50;;;22.10;61.40;;;;;;5010479;28;20142;-36
2023/07/17 02:34:55;;;;;;;1.90;1.33;;;21.20;74.90;;;;;;5010817;28;20136;-31
2023/07/17 02:37:22;;;;;;;2.63;1.73;;;21.70;66.70;;;;;;5021240;28;20129;-35
2023/07/17 02:39:49;;;;;;;3.25;1.30;;;;;;;;;;5010537;28;20136;-31
2023/07/17 02:42:16;;;;;;;3.17;1.40;;;;;;;;;;5010282;28;20058;-35
2023/07/17 02:44:44;;;;;;;3.97;1.63;;;21.90;77.20;;;;;;5010600;28;20136;-32
2023/07/17 02:47:11;;;;;;;2.88;1.40;;;21.30;70.10;;;;;;5026306;28;20056;-34
2023/07/17 02:49:39;;;;;;;2.17;1.50;;;21.30;76.80;;;;;;5030033;28;20051;-32
2023/07/17 02:52:07;;;;;;;2.33;1.27;;;22.10;61.50;;;;;;5030074;28;20136;-32
2023/07/17 02:54:36;;;;;;;2.15;1.30;;;22.70;78.10;;;;;;5029158;28;20057;-32
2023/07/17 02:57:04;;;;;;;2.05;1.50;;;;;;;;;;5029914;28;20512;-32
2023/07/17 02:59:30;;;;;;;2.10;1.33;;;21.70;64.50;;;;;;5030041;28;20133;-32
2023/07/17 03:01:57;;;;;;;2.20;1.50;;;21.90;67.70;;;;;;5029775;28;20053;-33
2023/07/17 03:04:24;;;;;;;3.35;1.40;;;22.80;77.90;;;;;;5029790;28;20524;-31
2023/07/17 03:06:52;;;;;;;3.03;1.58;;;22.00;61.50;;;;;;5029508;28;20046;-35
2023/07/17 03:09:19;;;;;;;2.08;1.40;;;;;;;;;;5023543;28;20125;-33
2023/07/17 03:11:47;;;;;;;2.75;1.60;;;;;;;;;;5010253;28;20056;-36
2023/07/17 03:14:13;;;;;;;2.00;1.40;;;21.70;69.10;;;;;;5009530;28;20136;-32
2023/07/17 03:16:41;;;;;;;2.00;1.30;;;21.70;78.00;;;;;;5010051;28;20054;-32
2023/07/17 03:19:08;;;;;;;2.92;1.60;;;21.90;77.60;;;;;;5010128;28;20042;-33
2023/07/17 03:21:35;;;;;;;1.90;1.40;;;;;;;;;;5009707;28;20046;-33
2023/07/17 03:24:03;;;;;;;2.17;1.60;;;22.00;61.40;;;;;;5016381;28;20048;-36
2023/07/17 03:26:30;;;;;;;4.20;1.42;;;21.80;65.50;;;;;;5028556;28;20482;-33
2023/07/17 03:28:57;;;;;;;2.15;1.50;;;20.90;74.40;;;;;;5029683;28;20136;-32
2023/07/17 03:31:24;;;;;;;2.85;1.60;;;;;;;;;;5029523;28;20049;-35
2023/07/17 03:33:51;;;;;;;2.47;1.58;;;;;;;;;;5022416;28;20109;-33
2023/07/17 03:36:18;;;;;;;2.33;1.45;;;;;;;;;;5021862;28;20125;-36
2023/07/17 03:38:45;;;;;;;1.85;1.40;;;21.70;78.10;;;;;;5029432;28;20140;-32
2023/07/17 03:41:13;;;;;;;2.15;1.48;;;21.90;61.40;;;;;;5029255;28;20045;-34
2023/07/17 03:43:39;;;;;;;2.30;1.40;;;21.80;78.10;;;;;;5029191;28;20066;-32
2023/07/17 03:46:06;;;;;;;2.13;1.38;;;21.90;65.90;;;;;;5028441;28;20175;-35
2023/07/17 03:48:33;;;;;;;1.60;1.20;;;21.70;71.40;;;;;;5026837;28;20136;-34
2023/07/17 03:51:00;;;;;;;2.38;1.42;;;;;;;;;;5009154;28;20522;-34
2023/07/17 03:53:27;;;;;;;2.22;1.58;;;22.00;73.50;;;;;;5009229;28;20540;-35
2023/07/17 03:55:53;;;;;;;3.53;1.50;;;21.90;77.20;;;;;;5009479;28;20046;-33
2023/07/17 03:58:22;;;;;;;3.05;1.45;;;21.20;61.10;;;;;;5009578;28;20136;-32
2023/07/17 04:00:48;;;;;;;2.88;1.50;;;21.90;77.40;;;;;;5009514;28;20053;-32
2023/07/17 04:03:15;;;;;;;4.43;1.67;;;;;;;;;;5008999;28;20132;-34
2023/07/17 04:05:43;;;;;;;2.22;1.40;;;21.70;76.30;;;;;;5017456;28;20129;-32
2023/07/17 04:08:09;;;;;;;3.83;1.40;;;21.70;77.30;;;;;;5013206;28;20123;-33
2023/07/17 04:10:36;;;;;;;3.25;1.58;;;22.00;65.50;;;;;;5009151;28;20486;-33
2023/07/17 04:13:03;;;;;;;2.03;1.38;;;;;;;;;;5009057;28;20132;-35
2023/07/17 04:15:31;;;;;;;2.55;1.40;;;21.90;78.30;;;;;;5009053;28;20456;-31
2023/07/17 04:17:58;;;;;;;4.43;1.40;;;22.20;77.30;;;;;;5008653;28;20046;-32
2023/07/17 04:20:25;;;;;;;2.42;1.55;;;;;;;;;;5009129;28;20072;-35
2023/07/17 04:22:52;;;;;;;2.58;1.60;;;22.30;77.80;;;;;;5026691;28;20053;-33
2023/07/17 04:25:19;;;;;;;4.00;1.40;;;21.70;77.50;;;;;;5028815;28;20140;-32
2023/07/17 04:27:46;;;;;;;2.30;1.48;;;;;;;;;;5028238;28;20391;-33
2023/07/17 04:30:13;;;;;;;2.08;1.38;;;;;;;;;;5028823;28;20485;-36
2023/07/17 04:32:41;;;;;;;2.65;1.42;;;22.40;70.70;;;;;;5028343;28;20053;-36
2023/07/17 04:35:09;;;;;;;3.33;1.60;;;21.80;61.50;;;;;;5028650;28;20543;-32
2023/07/17 04:37:36;;;;;;;2.33;1.20;;;;;;;;;;5027264;28;20132;-37
2023/07/17 04:40:05;;;;;;;2.08;1.30;;;21.80;77.80;;;;;;5028224;28;20049;-32
2023/07/17 04:42:31;;;;;;;3.50;1.52;;;21.20;77.30;;;;;;5028225;28;20136;-32
2023/07/17 04:44:58;;;;;;;3.55;1.50;;;21.60;66.10;;;;;;5028340;28;20477;-32
2023/07/17 04:47:25;;;;;;;2.75;1.50;;;21.70;77.50;;;;;;5028299;28;20457;-31
2023/07/17 04:49:53;;;;;;;2.42;1.40;;;21.80;61.50;;;;;;5028404;28;20140;-34
2023/07/17 04:52:20;;;;;;;2.17;1.40;;;;;;;;;;5026477;28;20072;-35
2023/07/17 04:54:47;;;;;;;3.60;1.58;;;22.50;78.00;;;;;;5008709;28;20129;-32
2023/07/17 04:57:14;;;;;;;2.13;1.70;;;21.50;77.90;;;;;;5007346;28;20124;-33
2023/07/17 04:59:41;;;;;;;3.15;1.60;;;;;;;;;;5008409;28;20149;-35
2023/07/17 05:02:07;;;;;;;2.90;1.40;;;21.30;77.80;;;;;;5008531;28;20137;-32
2023/07/17 05:04:34;;;;;;;2.58;1.48;;;22.60;78.20;;;;;;5008394;28;20056;-32
2023/07/17 05:07:02;;;;;;;2.88;1.48;;;22.20;61.80;;;;;;5008059;28;20038;-34
2023/07/17 05:09:29;;;;;;;2.08;1.60;;;22.20;71.80;;;;;;5009272;28;20125;-32
2023/07/17 05:11:56;;;;;;;2.88;1.55;;;21.40;77.80;;;;;;5008172;28;20064;-32
2023/07/17 05:14:22;;;;;;;2.30;1.60;;;21.90;77.80;;;;;;5007953;28;20057;-32
2023/07/17 05:16:49;;;;;;;3.72;1.85;;;21.70;65.00;;;;;;5008311;28;20129;-33
2023/07/17 05:19:16;;;;;;;3.33;1.77;;;21.90;78.00;;;;;;5008150;28;20125;-32
2023/07/17 05:21:43;;;;;;;2.72;1.48;;;;;;;;;;5008270;28;20046;-34
2023/07/17 05:24:11;;;;;;;4.50;1.58;;;22.00;67.90;;;;;;5008556;28;20133;-32
2023/07/17 05:26:39;;;;;;;3.30;1.77;;;;;;;;;;5007934;28;20065;-32
2023/07/17 05:29:06;;;;;;;2.38;1.45;;;;;;;;;;5007783;28;20049;-36
2023/07/17 05:31:33;;;;;;;4.40;1.67;;;;;;;;;;5008188;28;20221;-32
2023/07/17 05:34:00;;;;;;;1.83;1.30;;;;;;;;;;5007964;28;20071;-33
2023/07/17 05:36:27;;;;;;;2.67;1.40;;;22.20;78.00;;;;;;5012613;28;20128;-32
2023/07/17 05:38:54;;;;;;;3.38;1.80;;;;;;;;;;5027410;28;20552;-34
2023/07/17 05:41:22;;;;;;;2.40;1.60;;;21.70;61.50;;;;;;5019829;28;20469;-32
2023/07/17 05:43:49;;;;;;;2.30;1.55;;;;;;;;;;5007693;28;20046;-35
2023/07/17 05:46:16;;;;;;;1.83;1.40;;;;;;;;;;5016392;28;20120;-35
2023/07/17 05:48:43;;;;;;;4.15;1.73;;;22.50;78.30;;;;;;5027465;28;20050;-32
2023/07/17 05:51:09;;;;;;;2.35;1.42;;;21.50;74.10;;;;;;5027673;28;20132;-32
2023/07/17 05:53:36;;;;;;;2.45;1.60;;;22.80;65.80;;;;;;5026938;28;20136;-32
2023/07/17 05:56:03;;;;;;;2.70;1.52;;;21.20;77.70;;;;;;5027349;28;20061;-32
2023/07/17 05:58:31;;;;;;;2.72;1.40;;;21.70;61.60;;;;;;5012550;28;20121;-34
2023/07/17 06:00:58;;;;;;;3.10;1.60;;;20.60;77.10;;;;;;5007610;28;20054;-34
2023/07/17 06:03:25;;;;;;;4.45;1.50;;;;;;;;;;5007599;28;20475;-34
2023/07/17 06:05:52;;;;;;;4.03;1.85;;;21.60;77.60;;;;;;5007581;28;20523;-32
2023/07/17 06:08:19;;;;;;;2.88;1.50;;;;;;;;;;5009414;28;20133;-32
2023/07/17 06:10:46;;;;;;;2.45;1.58;;;21.80;77.80;;;;;;5010970;28;20125;-32
2023/07/17 06:13:13;;;;;;;3.05;1.80;;;;;;;;;;5011984;28;20128;-34
2023/07/17 06:15:41;;;;;;;3.30;1.70;;;21.70;61.50;;;;;;5029390;28;20461;-34
2023/07/17 06:18:08;;;;;;;4.35;1.75;;;22.10;77.70;;;;;;5030830;28;20137;-32
2023/07/17 06:20:35;;;;;;;2.78;1.65;;;;;;;;;;5030362;28;20121;-36
2023/07/17 06:23:02;;;;;;;3.47;1.80;;;;;;;;;;5030444;28;20148;-34
2023/07/17 06:25:29;;;;;;;3.53;1.77;;;;;;;;;;5030620;28;20109;-34
2023/07/17 06:27:56;;;;;;;2.70;1.60;;;21.70;77.70;;;;;;5030522;28;20045;-32
2023/07/17 06:30:24;;;;;;;2.78;1.83;;;;;;;;;;5016810;28;20516;-36
2023/07/17 06:32:52;;;;;;;4.90;2.13;;;21.70;63.60;;;;;;5010498;28;20046;-32
2023/07/17 06:35:19;;;;;;;2.90;1.90;;;;;;;;;;5017897;28;20136;-35
2023/07/17 06:37:46;;;;;;;3.17;1.88;;;21.90;78.10;;;;;;5029833;28;20048;-32
2023/07/17 06:40:13;;;;;;;3.13;1.70;;;22.10;63.50;;;;;;5030232;28;20136;-32
2023/07/17 06:42:40;;;;;;;3.60;1.92;;;;;;;;;;5030189;28;20149;-33
2023/07/17 06:45:08;;;;;;;3.45;1.80;;;21.90;77.80;;;;;;5026172;28;20121;-32
2023/07/17 06:47:35;;;;;;;4.97;2.00;;;;;;;;;;5029668;28;20126;-34
2023/07/17 06:50:04;;;;;;;2.95;1.63;;;22.70;77.00;;;;;;5030269;28;20132;-36
2023/07/17 06:52:31;;;;;;;3.63;2.08;;;21.60;77.50;;;;;;5030139;28;20053;-32
2023/07/17 06:54:58;;;;;;;3.80;1.85;;;;;;;;;;5030443;28;20050;-34
2023/07/17 06:57:25;;;;;;;3.17;1.90;;;21.50;77.70;;;;;;5026665;28;20056;-35
2023/07/17 06:59:51;;;;;;;4.00;2.25;;;21.70;69.80;;;;;;5020218;28;20379;-32
2023/07/17 07:02:18;;;;;;;3.78;1.90;;;21.80;61.40;;;;;;5020383;28;20081;-34
2023/07/17 07:04:45;;;;;;;4.97;2.40;;;20.90;74.40;;;;;;5018122;28;20046;-32
2023/07/17 07:07:13;;;;;;;4.47;2.20;;;22.00;77.80;;;;;;5010162;28;20060;-33
2023/07/17 07:09:40;;;;;;;3.70;1.88;;;21.70;77.80;;;;;;5010436;28;20120;-33
2023/07/17 07:12:08;;;;;;;15.00;2.30;;;21.80;61.40;;;;;;5013058;28;20045;-35
2023/07/17 07:14:35;;;;;;;5.45;2.40;;;;;;;;;;5019449;28;20047;-35
2023/07/17 07:17:02;;;;;;;3.90;1.98;;;22.80;65.60;;;;;;5020946;28;20048;-32
2023/07/17 07:19:29;;;;;;;4.80;2.17;;;;;;;;;;5014742;28;20148;-35
2023/07/17 07:21:56;;;;;;;4.93;1.95;;;21.90;78.20;;;;;;5017822;28;20161;-34
2023/07/17 07:24:24;;;;;;;2.85;1.85;;;21.90;61.50;;;;;;5020575;28;20058;-36
2023/07/17 07:26:51;;;;;;;3.92;2.20;;;;;;;;;;5018784;28;20125;-35
2023/07/17 07:29:18;;;;;;;5.38;2.55;;;21.10;77.30;;;;;;5020848;28;20041;-33
2023/07/17 07:31:44;;;;;;;6.70;2.45;;;22.20;78.50;;;;;;5029417;28;20060;-32
2023/07/17 07:34:11;;;;;;;4.93;2.33;;;22.20;65.90;;;;;;5015886;28;20570;-34
2023/07/17 07:36:38;;;;;;;4.47;1.92;;;23.00;78.00;;;;;;5015943;28;20143;-32
2023/07/17 07:39:05;;;;;;;3.72;2.22;;;21.70;76.80;;;;;;5029514;28;20052;-32
2023/07/17 07:41:33;;;;;;;3.33;2.13;;;22.20;77.50;;;;;;5029570;28;20050;-32
2023/07/17 07:44:00;;;;;;;3.85;2.08;;;22.70;78.50;;;;;;5029236;28;20053;-31
2023/07/17 07:46:27;;;;;;;3.50;2.00;;;;;;;;;;5029227;28;20049;-32
2023/07/17 07:48:54;;;;;;;4.40;2.20;;;21.80;77.80;;;;;;5025324;28;20042;-32
2023/07/17 07:51:21;;;;;;;3.45;1.80;;;;;;;;;;5009641;28;20128;-35
2023/07/17 07:53:48;;;;;;;4.68;1.92;;;21.60;65.80;;;;;;5009380;28;20112;-32
2023/07/17 07:56:15;;;;;;;4.63;2.30;;;21.80;76.70;;;;;;5009685;28;20149;-32
2023/07/17 07:58:43;;;;;;;4.55;2.28;;;21.60;69.70;;;;;;5009421;28;20513;-32
2023/07/17 08:01:09;;;;;;;7.47;2.63;;;22.00;76.90;;;;;;5009251;28;20053;-32
2023/07/17 08:03:37;;;;;;;6.57;2.40;;;21.80;61.60;;;;;;5011383;28;20481;-33
2023/07/17 08:06:04;;;;;;;8.35;2.30;;;;;;;;;;5021396;28;20052;-36
2023/07/17 08:08:31;;;;;;;5.20;2.17;;;;;;;;;;5028649;28;20052;-32
2023/07/17 08:10:58;;;;;;;5.13;2.10;;;;;;;;;;5029013;28;20565;-33
2023/07/17 08:13:25;;;;;;;4.30;2.25;;;22.10;77.70;;;;;;5028652;28;20473;-32
2023/07/17 08:15:53;;;;;;;5.53;2.03;;;22.60;74.90;;;;;;5028908;28;20133;-33
2023/07/17 08:18:20;;;;;;;3.47;2.20;;;21.90;77.30;;;;;;5021534;28;20046;-34
2023/07/17 08:20:47;;;;;;;4.30;2.30;;;22.20;77.30;;;;;;5026360;28;20128;-33
2023/07/17 08:23:14;;;;;;;5.93;3.28;;;21.80;77.00;;;;;;5027891;28;20120;-32
2023/07/17 08:25:41;;;;;;;4.30;2.55;;;;;;;;;;5028383;28;20132;-36
2023/07/17 08:28:08;;;;;;;4.30;2.40;;;23.10;77.70;;;;;;5028273;28;20046;-32
2023/07/17 08:30:35;;;;;;;5.68;2.53;;;;;;;;;;5028568;28;20140;-35
2023/07/17 08:33:04;;;;;;;3.95;2.38;;;22.60;77.70;;;;;;5028530;28;20056;-32
2023/07/17 08:35:31;;;;;;;3.40;2.15;;;22.20;77.20;;;;;;5028464;28;20060;-32
2023/07/17 08:37:58;;;;;;;4.30;2.05;;;;;;;;;;5027989;28;20056;-35
2023/07/17 08:40:27;;;;;;;4.30;2.42;;;22.30;77.20;;;;;;5028332;28;20049;-31
2023/07/17 08:42:53;;;;;;;4.93;2.08;;;21.90;71.10;;;;;;5028375;28;20132;-32
2023/07/17 08:45:21;;;;;;;3.50;2.20;;;22.80;63.60;;;;;;5028627;28;20136;-34
2023/07/17 08:47:48;;;;;;;6.15;2.45;;;22.50;65.70;;;;;;5028308;28;20437;-32
2023/07/17 08:50:16;;;;;;;5.20;2.50;;;22.30;61.10;;;;;;5028086;28;20042;-34
2023/07/17 08:52:42;;;;;;;3.60;2.10;;;23.00;74.10;;;;;;5028082;28;20049;-32
2023/07/17 08:55:09;;;;;;;4.68;2.67;;;22.00;76.70;;;;;;5028214;28;20132;-33
2023/07/17 08:57:36;;;;;;;5.40;2.60;;;21.90;65.80;;;;;;5028396;28;20136;-34
2023/07/17 09:00:05;;;;;;;4.72;2.72;;;21.70;76.60;;;;;;5028199;28;20061;-32
2023/07/17 09:02:32;;;;;;;3.90;2.63;;;22.20;60.70;;;;;;5027837;28;20052;-34
2023/07/17 09:04:59;;;;;;;4.97;2.40;;;22.70;66.00;;;;;;5028283;28;20152;-32
2023/07/17 09:07:27;;;;;;;4.72;2.45;;;24.20;61.60;;;;;;5028070;28;20128;-35
2023/07/17 09:10:15;;;;;;;6.25;2.60;;;22.20;60.50;;;;;;5028146;28;20128;-35
2023/07/17 09:12:43;;;;;;;5.32;2.20;;;22.20;60.40;;;;;;5027923;28;20120;-33
2023/07/17 09:15:13;;;;;;;5.68;2.70;;;22.30;77.20;;;;;;5027884;28;20418;-32
2023/07/17 09:17:40;;;;;;;5.40;2.40;;;;;;;;;;5028016;28;20483;-36
2023/07/17 09:20:08;;;;;;;4.75;2.50;;;21.90;77.20;;;;;;5027926;28;20129;-32
2023/07/17 09:22:37;;;;;;;5.18;2.30;;;21.90;76.70;;;;;;5027490;28;20053;-32
2023/07/17 09:25:05;;;;;;;4.97;2.60;;;22.10;60.50;;;;;;5027901;28;20132;-34
2023/07/17 09:27:32;;;;;;;3.80;2.28;;;22.00;76.60;;;;;;5027872;28;20141;-33
2023/07/17 09:29:59;;;;;;;4.70;2.20;;;21.20;76.20;;;;;;5027765;28;20045;-32
2023/07/17 09:32:26;;;;;;;5.35;2.50;;;;;;;;;;5027423;28;20589;-34
2023/07/17 09:34:55;;;;;;;5.53;2.38;;;;;;;;;;5027788;28;20470;-34
2023/07/17 09:37:23;;;;;;;4.75;2.40;;;22.10;76.90;;;;;;5027222;28;20051;-32
2023/07/17 09:39:53;;;;;;;3.90;2.45;;;22.10;76.90;;;;;;5027843;28;20054;-32
2023/07/17 09:42:23;;;;;;;3.85;2.30;;;21.70;61.90;;;;;;5025871;28;20057;-32
2023/07/17 09:44:51;;;;;;;5.25;2.28;;;21.90;77.00;;;;;;5017922;28;20046;-33
2023/07/17 09:47:17;;;;;;;3.70;2.20;;;21.80;68.20;;;;;;5020978;28;20120;-35
2023/07/17 09:49:44;;;;;;;3.40;2.20;;;;;;;;;;5019157;28;20041;-33
2023/07/17 09:52:12;;;;;;;3.90;2.15;;;;;;;;;;5020576;28;20049;-35
2023/07/17 09:54:38;;;;;;;4.57;2.25;;;21.90;63.70;;;;;;5020051;28;20045;-32
2023/07/17 09:57:07;;;;;;;3.95;2.13;;;21.70;77.90;;;;;;5021337;28;20875;-32
2023/07/17 09:59:34;;;;;;;3.17;2.05;;;22.00;67.60;;;;;;5032217;27;20068;-33
2023/07/17 10:02:01;;;;;;;3.47;2.20;;;;;;;;;;5020431;28;20073;-34
2023/07/17 10:04:31;;;;;;;3.30;1.90;;;22.10;61.30;;;;;;5019746;28;20126;-35
2023/07/17 10:06:58;;;;;;;3.83;2.00;;;22.00;68.00;;;;;;5019824;28;20049;-35
2023/07/17 10:09:25;;;;;;;4.18;2.20;;;21.90;62.00;;;;;;5021427;28;20129;-34
2023/07/17 10:11:51;;;;;;;4.95;2.30;;;21.60;76.50;;;;;;5020745;28;20144;-32
2023/07/17 10:14:20;;;;;;;3.95;2.22;;;22.70;63.70;;;;;;5020723;28;20128;-35
2023/07/17 10:16:46;;;;;;;5.68;2.80;;;22.20;73.30;;;;;;5010472;28;20045;-32
2023/07/17 10:19:13;;;;;;;4.03;2.45;;;22.50;72.40;;;;;;5010107;28;20125;-32
2023/07/17 10:21:53;;;;;;;2.78;2.03;;;22.50;60.70;;;;;;5021870;28;20064;-36
2023/07/17 10:24:22;;;;;;;4.68;2.83;;;22.50;60.60;;;;;;5010111;28;20088;-34
2023/07/17 10:26:49;;;;;;;4.70;2.20;;;22.30;64.70;;;;;;5018891;28;20060;-31
2023/07/17 10:29:16;;;;;;;3.58;2.30;;;22.90;66.90;;;;;;5019875;28;20121;-34
2023/07/17 10:31:50;;;;;;;4.82;2.30;;;23.40;70.60;;;;;;5015660;28;20124;-33
2023/07/17 10:34:17;;;;;;;5.18;2.10;;;;;;;;;;5018487;28;20136;-37
2023/07/17 10:36:44;;;;;;;3.15;2.05;;;22.70;73.00;;;;;;5025197;28;20049;-32
2023/07/17 10:39:15;;;;;;;5.10;1.98;;;22.70;60.40;;;;;;5030186;28;20069;-33
2023/07/17 10:41:42;;;;;;;3.10;2.00;;;;;;;;;;5030675;28;20132;-33
2023/07/17 10:44:09;;;;;;;2.95;1.90;;;23.80;64.10;;;;;;5030108;28;20159;-32
2023/07/17 10:46:36;;;;;;;4.25;2.33;;;22.80;76.10;;;;;;5025180;28;20141;-33
2023/07/17 10:49:09;;;;;;;2.65;2.03;;;22.70;65.90;;;;;;5011564;28;20048;-34
2023/07/17 10:51:36;;;;;;;4.43;2.10;;;22.60;71.70;;;;;;5021335;28;20057;-32
2023/07/17 10:54:03;;;;;;;2.70;1.90;;;;;;;;;;5009027;28;20129;-35
2023/07/17 10:56:30;;;;;;;3.72;2.25;;;22.90;60.10;;;;;;5017246;28;20128;-34
2023/07/17 10:58:57;;;;;;;3.00;1.90;;;22.30;76.20;;;;;;5010245;28;20133;-32
2023/07/17 11:01:24;;;;;;;4.80;2.10;;;23.10;68.90;;;;;;5010095;28;20128;-33
2023/07/17 11:03:50;;;;;;;4.88;1.98;;;23.70;75.80;;;;;;5010158;28;20054;-31
2023/07/17 11:06:19;;;;;;;4.05;2.10;;;22.90;60.00;;;;;;5011003;28;20057;-35
2023/07/17 11:08:48;;;;;;;4.68;2.22;;;22.90;60.00;;;;;;5019076;27;20054;-35
2023/07/17 11:11:15;;;;;;;3.47;2.00;;;22.80;66.00;;;;;;5018849;28;20144;-34
2023/07/17 11:13:44;;;;;;;3.75;2.25;;;22.90;71.80;;;;;;5020229;28;20046;-31
2023/07/17 11:16:11;;;;;;;3.67;1.90;;;22.50;76.00;;;;;;5021929;28;20455;-34
2023/07/17 11:18:45;;;;;;;3.25;1.90;;;24.00;76.00;;;;;;5018403;28;20046;-32
2023/07/17 11:21:12;;;;;;;3.45;1.83;;;;;;;;;;5024022;28;20561;-36
2023/07/17 11:23:47;;;;;;;3.40;1.90;;;23.50;76.10;;;;;;5026489;28;20053;-31
2023/07/17 11:26:14;;;;;;;3.88;1.85;;;23.00;75.20;;;;;;5029512;28;20057;-33
2023/07/17 11:28:41;;;;;;;3.05;2.03;;;23.20;76.30;;;;;;5029468;28;20053;-32
2023/07/17 11:31:18;;;;;;;2.80;2.00;;;23.80;76.90;;;;;;5016469;28;20064;-33
2023/07/17 11:33:50;;;;;;;3.35;1.90;;;22.10;63.50;;;;;;5023412;28;20517;-33
2023/07/17 11:36:16;;;;;;;3.92;1.70;;;22.80;62.00;;;;;;5026177;28;20141;-33
2023/07/17 11:38:44;;;;;;;5.18;1.88;;;22.70;75.20;;;;;;5019714;28;20041;-33
2023/07/17 11:41:12;;;;;;;3.75;2.00;;;;;;;;;;5028998;28;20136;-32
2023/07/17 11:43:39;;;;;;;3.08;2.00;;;;;;;;;;5024643;28;20052;-34
2023/07/17 11:46:06;;;;;;;5.65;1.92;;;22.90;75.40;;;;;;5014147;28;20084;-32
2023/07/17 11:48:33;;;;;;;3.38;2.03;;;23.20;60.10;;;;;;5011109;28;20053;-36
2023/07/17 11:51:02;;;;;;;3.00;1.80;;;22.90;74.60;;;;;;5009670;28;20133;-32
2023/07/17 11:53:29;;;;;;;3.78;1.98;;;;;;;;;;5009492;28;20250;-35
2023/07/17 11:55:57;;;;;;;2.60;1.70;;;23.10;75.90;;;;;;5015193;28;20046;-32
2023/07/17 11:58:26;;;;;;;4.32;1.88;;;23.10;60.00;;;;;;5017670;28;20136;-33
2023/07/17 12:00:54;;;;;;;2.33;1.70;;;22.80;72.90;;;;;;5029580;28;20057;-33
2023/07/17 12:03:20;;;;;;;4.57;2.00;;;23.20;75.60;;;;;;5014460;28;20498;-32
2023/07/17 12:05:48;;;;;;;3.63;1.83;;;;;;;;;;5008961;28;20046;-37
2023/07/17 12:08:14;;;;;;;3.35;1.90;;;24.20;76.40;;;;;;5009250;28;20103;-31
2023/07/17 12:10:41;;;;;;;3.03;1.75;;;23.10;75.40;;;;;;5008988;28;20049;-32
2023/07/17 12:13:09;;;;;;;2.00;1.60;;;22.60;67.10;;;;;;5018618;28;20060;-33
2023/07/17 12:15:37;;;;;;;2.60;1.63;;;;;;;;;;5018254;28;20518;-34
2023/07/17 12:18:04;;;;;;;2.78;1.75;;;23.10;60.00;;;;;;5026826;28;20069;-35
2023/07/17 12:20:32;;;;;;;2.33;1.60;;;;;;;;;;5028915;28;20049;-32
2023/07/17 12:22:59;;;;;;;3.42;1.80;;;23.10;60.10;;;;;;5012384;28;20054;-36
2023/07/17 12:25:25;;;;;;;2.30;1.75;;;23.20;76.50;;;;;;5009002;28;20130;-32
2023/07/17 12:27:52;;;;;;;3.33;2.00;;;22.60;64.30;;;;;;5010168;28;20136;-33
2023/07/17 12:30:22;;;;;;;2.10;1.60;;;22.50;75.20;;;;;;5018953;28;20125;-31
2023/07/17 12:32:49;;;;;;;3.42;1.98;;;22.80;62.90;;;;;;5014573;28;20050;-32
2023/07/17 12:35:16;;;;;;;4.88;2.08;;;22.40;75.10;;;;;;5015506;28;20041;-31
2023/07/17 12:37:43;;;;;;;3.03;2.00;;;;;;;;;;5015498;28;20102;-35
2023/07/17 12:40:10;;;;;;;5.35;1.92;;;22.80;62.60;;;;;;5016490;28;20038;-32
2023/07/17 12:42:38;;;;;;;3.70;2.47;;;23.60;76.20;;;;;;5016422;28;20069;-31
2023/07/17 12:45:05;;;;;;;4.80;2.10;;;22.70;66.40;;;;;;5016005;28;20227;-33
2023/07/17 12:47:35;;;;;;;5.13;1.90;;;22.70;75.90;;;;;;5018020;28;20046;-31
2023/07/17 12:50:02;;;;;;;4.97;1.90;;;;;;;;;;5016438;28;20069;-31
2023/07/17 12:52:29;;;;;;;3.42;1.88;;;;;;;;;;5016081;28;20128;-36
2023/07/17 12:54:56;;;;;;;5.05;2.00;;;22.80;75.90;;;;;;5015101;28;20056;-31
2023/07/17 12:57:22;;;;;;;3.33;1.90;;;22.20;75.50;;;;;;5016415;28;20140;-31
2023/07/17 12:59:49;;;;;;;5.72;1.77;;;;;;;;;;5016917;28;20068;-35
2023/07/17 13:02:16;;;;;;;3.90;1.73;;;22.80;76.80;;;;;;5024157;28;20085;-31
2023/07/17 13:04:44;;;;;;;3.05;1.80;;;22.90;60.60;;;;;;5026566;28;20073;-35
2023/07/17 13:07:11;;;;;;;2.92;1.80;;;;;;;;;;5008948;28;20534;-36
2023/07/17 13:09:38;;;;;;;4.57;1.80;;;;;;;;;;5020131;28;20483;-32
2023/07/17 13:12:06;;;;;;;3.78;1.60;;;23.00;76.90;;;;;;5028016;28;20528;-31
2023/07/17 13:14:33;;;;;;;4.18;2.00;;;22.90;67.90;;;;;;5027039;28;20064;-32